createdAt,value
2018-09-04T00:01:22.592Z,9.43
2018-09-04T00:03:51.460Z,9.27
2018-09-04T00:06:20.274Z,8.17
2018-09-04T00:08:49.158Z,9.57
2018-09-04T00:11:18.012Z,8.97
2018-09-04T00:13:46.883Z,9.00
2018-09-04T00:16:15.741Z,9.53
2018-09-04T00:18:44.544Z,9.07
2018-09-04T00:21:13.452Z,9.40
2018-09-04T00:23:42.244Z,8.97
2018-09-04T00:26:11.130Z,9.60
2018-09-04T00:28:39.939Z,8.60
2018-09-04T00:31:09.095Z,9.60
2018-09-04T00:33:37.891Z,8.90
2018-09-04T00:36:07.422Z,9.03
2018-09-04T00:38:36.227Z,8.57
2018-09-04T00:41:05.129Z,8.20
2018-09-04T00:43:33.922Z,8.37
2018-09-04T00:46:02.829Z,7.63
2018-09-04T00:48:31.611Z,7.97
2018-09-04T00:51:00.575Z,7.40
2018-09-04T00:53:29.392Z,7.80
2018-09-04T00:55:58.618Z,7.10
2018-09-04T00:58:27.463Z,7.53
2018-09-04T01:00:56.267Z,7.47
2018-09-04T01:03:25.147Z,7.07
2018-09-04T01:05:53.936Z,6.67
2018-09-04T01:08:23.135Z,6.93
2018-09-04T01:10:51.916Z,7.73
2018-09-04T01:13:20.735Z,6.77
2018-09-04T01:15:49.583Z,7.30
2018-09-04T01:18:18.408Z,7.10
2018-09-04T01:20:47.224Z,7.10
2018-09-04T01:23:16.059Z,7.30
2018-09-04T01:25:44.863Z,7.10
2018-09-04T01:28:13.865Z,6.77
2018-09-04T01:30:42.900Z,7.20
2018-09-04T01:33:11.736Z,7.23
2018-09-04T01:35:40.671Z,7.90
2018-09-04T01:38:09.519Z,7.67
2018-09-04T01:40:38.367Z,8.07
2018-09-04T01:43:07.198Z,7.10
2018-09-04T01:45:36.904Z,7.10
2018-09-04T01:48:05.868Z,7.87
2018-09-04T01:50:34.719Z,7.47
2018-09-04T01:53:03.716Z,7.80
2018-09-04T01:55:32.545Z,7.67
2018-09-04T01:58:01.328Z,7.53
2018-09-04T02:00:30.176Z,7.87
2018-09-04T02:02:58.978Z,7.40
2018-09-04T02:05:28.156Z,7.53
2018-09-04T02:07:56.930Z,7.60
2018-09-04T02:10:25.768Z,7.10
2018-09-04T02:12:54.842Z,7.40
2018-09-04T02:15:23.845Z,7.60
2018-09-04T02:17:52.684Z,6.80
2018-09-04T02:20:21.522Z,7.20
2018-09-04T02:22:50.347Z,7.57
2018-09-04T02:25:19.185Z,7.33
2018-09-04T02:27:48.246Z,7.57
2018-09-04T02:30:17.235Z,7.63
2018-09-04T02:32:46.017Z,7.13
2018-09-04T02:35:14.859Z,7.17
2018-09-04T02:37:43.644Z,7.07
2018-09-04T02:40:12.503Z,6.90
2018-09-04T02:42:41.337Z,7.00
2018-09-04T02:45:10.177Z,6.90
2018-09-04T02:47:39.015Z,6.83
2018-09-04T02:50:07.771Z,7.37
2018-09-04T02:52:36.622Z,8.03
2018-09-04T02:55:05.559Z,7.43
2018-09-04T02:57:34.379Z,7.80
2018-09-04T03:00:03.359Z,7.80
2018-09-04T03:02:32.178Z,7.33
2018-09-04T03:05:01.244Z,7.60
2018-09-04T03:07:30.151Z,7.60
2018-09-04T03:09:58.972Z,8.37
2018-09-04T03:12:27.792Z,8.77
2018-09-04T03:14:56.594Z,6.93
2018-09-04T03:17:25.427Z,8.00
2018-09-04T03:19:54.282Z,8.60
2018-09-04T03:22:23.109Z,7.80
2018-09-04T03:24:51.896Z,8.00
2018-09-04T03:27:20.714Z,8.00
2018-09-04T03:29:49.774Z,8.03
2018-09-04T03:32:18.660Z,7.63
2018-09-04T03:34:47.467Z,7.70
2018-09-04T03:37:16.427Z,7.97
2018-09-04T03:39:45.266Z,8.40
2018-09-04T03:42:14.159Z,8.53
2018-09-04T03:44:43.079Z,7.80
2018-09-04T03:47:11.895Z,7.50
2018-09-04T03:49:40.798Z,8.30
2018-09-04T03:52:09.601Z,8.60
2018-09-04T03:54:38.767Z,8.90
2018-09-04T03:57:07.635Z,8.27
2018-09-04T03:59:36.482Z,8.60
2018-09-04T04:02:05.611Z,9.20
2018-09-04T04:04:34.459Z,8.63
2018-09-04T04:07:03.314Z,9.00
2018-09-04T04:09:32.204Z,8.20
2018-09-04T04:12:01.350Z,8.93
2018-09-04T04:14:30.133Z,9.30
2018-09-04T04:16:59.085Z,8.97
2018-09-04T04:19:27.920Z,8.63
2018-09-04T04:21:56.739Z,9.20
2018-09-04T04:24:25.566Z,8.73
2018-09-04T04:26:54.330Z,8.87
2018-09-04T04:29:23.227Z,9.00
2018-09-04T04:31:52.020Z,9.37
2018-09-04T04:34:20.887Z,9.57
2018-09-04T04:36:49.687Z,10.10
2018-09-04T04:39:18.504Z,9.43
2018-09-04T04:41:47.272Z,9.40
2018-09-04T04:44:16.032Z,9.30
2018-09-04T04:46:45.316Z,9.33
2018-09-04T04:49:14.104Z,9.27
2018-09-04T04:51:42.919Z,9.73
2018-09-04T04:54:11.703Z,8.77
2018-09-04T04:56:40.531Z,10.13
2018-09-04T04:59:09.530Z,9.73
2018-09-04T05:01:38.476Z,9.80
2018-09-04T05:04:07.637Z,10.53
2018-09-04T05:06:36.436Z,10.77
2018-09-04T05:09:08.052Z,11.83
2018-09-04T05:11:37.034Z,9.87
2018-09-04T05:14:05.943Z,10.50
2018-09-04T05:16:34.795Z,10.63
2018-09-04T05:19:03.599Z,10.77
2018-09-04T05:21:32.413Z,10.43
2018-09-04T05:24:01.265Z,10.40
2018-09-04T05:26:30.125Z,10.13
2018-09-04T05:28:58.912Z,10.10
2018-09-04T05:31:28.378Z,10.03
2018-09-04T05:33:57.293Z,10.37
2018-09-04T05:36:26.213Z,9.70
2018-09-04T05:38:54.976Z,10.07
2018-09-04T05:41:23.916Z,9.53
2018-09-04T05:43:57.825Z,10.23
2018-09-04T05:46:32.596Z,8.83
2018-09-04T05:49:01.854Z,9.87
2018-09-04T05:51:30.677Z,9.63
2018-09-04T05:53:59.935Z,9.50
2018-09-04T05:56:28.841Z,10.03
2018-09-04T05:58:57.665Z,10.17
2018-09-04T06:01:26.612Z,10.57
2018-09-04T06:03:55.452Z,10.50
2018-09-04T06:06:24.215Z,9.93
2018-09-04T06:08:53.120Z,11.13
2018-09-04T06:11:21.920Z,10.87
2018-09-04T06:13:50.885Z,11.23
2018-09-04T06:16:19.659Z,10.90
2018-09-04T06:18:48.495Z,11.57
2018-09-04T06:21:17.292Z,10.93
2018-09-04T06:23:46.149Z,12.57
2018-09-04T06:26:14.973Z,13.03
2018-09-04T06:28:43.807Z,15.30
2018-09-04T06:31:12.609Z,14.33
2018-09-04T06:33:41.767Z,15.87
2018-09-04T06:36:10.590Z,16.37
2018-09-04T06:38:39.580Z,15.27
2018-09-04T06:41:08.443Z,17.43
2018-09-04T06:43:37.238Z,18.20
2018-09-04T06:46:06.200Z,17.80
2018-09-04T06:48:35.480Z,19.47
2018-09-04T06:51:06.612Z,19.10
2018-09-04T06:53:35.538Z,20.80
2018-09-04T06:56:04.549Z,20.03
2018-09-04T06:58:33.347Z,20.50
2018-09-04T07:01:02.233Z,22.03
2018-09-04T07:03:31.093Z,21.07
2018-09-04T07:05:59.977Z,22.70
2018-09-04T07:08:28.740Z,20.57
2018-09-04T07:10:57.564Z,22.07
2018-09-04T07:13:26.340Z,22.87
2018-09-04T07:15:55.229Z,23.10
2018-09-04T07:18:24.016Z,23.50
2018-09-04T07:20:53.248Z,23.07
2018-09-04T07:23:22.149Z,22.97
2018-09-04T07:25:51.007Z,22.97
2018-09-04T07:28:19.846Z,23.50
2018-09-04T07:30:48.735Z,22.73
2018-09-04T07:33:17.609Z,24.47
2018-09-04T07:35:46.478Z,24.20
2018-09-04T07:38:15.269Z,23.53
2018-09-04T07:40:44.190Z,25.20
2018-09-04T07:43:12.980Z,24.97
2018-09-04T07:45:41.799Z,25.17
2018-09-04T07:48:10.633Z,24.33
2018-09-04T07:50:39.413Z,24.17
2018-09-04T07:53:08.328Z,24.93
2018-09-04T07:55:37.082Z,25.70
2018-09-04T07:58:05.912Z,26.30
2018-09-04T08:00:34.782Z,25.67
2018-09-04T08:03:03.631Z,26.20
2018-09-04T08:05:32.531Z,25.87
2018-09-04T08:08:01.390Z,25.97
2018-09-04T08:10:33.639Z,26.70
2018-09-04T08:13:07.032Z,27.70
2018-09-04T08:15:37.419Z,27.40
2018-09-04T08:18:06.302Z,27.17
2018-09-04T08:20:35.213Z,26.33
2018-09-04T08:23:04.001Z,26.07
2018-09-04T08:25:32.776Z,26.47
2018-09-04T08:28:02.021Z,27.43
2018-09-04T08:30:30.826Z,27.53
2018-09-04T08:32:59.889Z,26.37
2018-09-04T08:35:28.459Z,28.23
2018-09-04T08:37:59.724Z,27.80
2018-09-04T08:40:31.089Z,27.73
2018-09-04T08:43:01.481Z,26.97
2018-09-04T08:45:31.552Z,29.57
2018-09-04T08:48:02.348Z,28.67
2018-09-04T08:50:32.929Z,28.37
2018-09-04T08:53:01.785Z,28.30
2018-09-04T08:55:30.653Z,26.83
2018-09-04T08:57:59.419Z,27.27
2018-09-04T09:00:28.280Z,28.33
2018-09-04T09:02:57.252Z,28.90
2018-09-04T09:05:26.123Z,29.47
2018-09-04T09:07:55.009Z,27.63
2018-09-04T09:10:23.865Z,27.30
2018-09-04T09:12:52.638Z,29.20
2018-09-04T09:15:21.594Z,27.33
2018-09-04T09:17:50.372Z,28.57
2018-09-04T09:20:19.238Z,28.40
2018-09-04T09:22:48.043Z,28.87
2018-09-04T09:25:16.821Z,27.10
2018-09-04T09:27:45.781Z,27.50
2018-09-04T09:30:14.590Z,28.40
2018-09-04T09:32:43.395Z,28.17
2018-09-04T09:35:12.190Z,28.03
2018-09-04T09:37:41.028Z,26.17
2018-09-04T09:40:09.882Z,26.90
2018-09-04T09:42:38.772Z,25.13
2018-09-04T09:45:07.623Z,26.17
2018-09-04T09:47:40.943Z,25.90
2018-09-04T09:50:09.771Z,24.93
2018-09-04T09:52:38.869Z,27.37
2018-09-04T09:55:08.736Z,26.80
2018-09-04T09:57:37.623Z,24.60
2018-09-04T10:00:08.180Z,25.80
2018-09-04T10:02:42.484Z,27.27
2018-09-04T10:05:11.591Z,26.53
2018-09-04T10:07:40.464Z,24.53
2018-09-04T10:10:09.268Z,25.27
2018-09-04T10:12:38.132Z,24.30
2018-09-04T10:15:06.987Z,24.90
2018-09-04T10:17:35.924Z,24.53
2018-09-04T10:20:04.881Z,24.23
2018-09-04T10:22:33.704Z,24.23
2018-09-04T10:25:02.472Z,25.13
2018-09-04T10:27:31.287Z,22.97
2018-09-04T10:30:00.122Z,24.33
2018-09-04T10:32:28.989Z,24.23
2018-09-04T10:34:57.780Z,26.17
2018-09-04T10:37:26.640Z,23.90
2018-09-04T10:40:00.905Z,22.97
2018-09-04T10:42:30.795Z,24.10
2018-09-04T10:44:59.751Z,22.57
2018-09-04T10:47:28.733Z,23.40
2018-09-04T10:49:57.668Z,23.40
2018-09-04T10:52:26.454Z,21.37
2018-09-04T10:54:55.427Z,21.30
2018-09-04T10:57:24.196Z,23.07
2018-09-04T10:59:52.996Z,21.70
2018-09-04T11:02:21.879Z,21.17
2018-09-04T11:04:50.895Z,21.03
2018-09-04T11:07:19.715Z,21.37
2018-09-04T11:09:48.989Z,19.53
2018-09-04T11:12:17.729Z,22.60
2018-09-04T11:14:46.580Z,20.93
2018-09-04T11:17:15.387Z,20.27
2018-09-04T11:19:44.284Z,21.47
2018-09-04T11:22:13.093Z,20.67
2018-09-04T11:24:41.928Z,21.20
2018-09-04T11:27:10.728Z,20.37
2018-09-04T11:29:40.431Z,20.33
2018-09-04T11:32:09.281Z,20.27
2018-09-04T11:34:38.112Z,19.73
2018-09-04T11:37:06.980Z,20.70
2018-09-04T11:39:35.757Z,20.50
2018-09-04T11:42:04.639Z,19.73
2018-09-04T11:44:33.484Z,20.70
2018-09-04T11:47:03.275Z,20.03
2018-09-04T11:49:31.972Z,18.70
2018-09-04T11:52:00.795Z,20.77
2018-09-04T11:54:29.571Z,18.63
2018-09-04T11:56:58.520Z,18.80
2018-09-04T11:59:27.396Z,19.70
2018-09-04T12:01:57.987Z,17.87
2018-09-04T12:04:26.805Z,18.90
2018-09-04T12:06:55.740Z,18.20
2018-09-04T12:09:24.588Z,17.60
2018-09-04T12:11:53.415Z,18.77
2018-09-04T12:14:22.531Z,20.00
2018-09-04T12:16:51.347Z,19.87
2018-09-04T12:19:20.228Z,18.87
2018-09-04T12:21:49.039Z,19.83
2018-09-04T12:24:17.923Z,18.83
2018-09-04T12:26:46.745Z,18.30
2018-09-04T12:29:15.541Z,18.63
2018-09-04T12:31:44.444Z,17.33
2018-09-04T12:34:13.376Z,16.43
2018-09-04T12:36:42.219Z,17.37
2018-09-04T12:39:10.976Z,15.77
2018-09-04T12:41:40.091Z,15.17
2018-09-04T12:44:08.918Z,14.70
2018-09-04T12:46:37.861Z,16.40
2018-09-04T12:49:06.673Z,15.67
2018-09-04T12:51:35.464Z,15.33
2018-09-04T12:54:04.280Z,13.93
2018-09-04T12:56:33.093Z,14.03
2018-09-04T12:59:02.044Z,13.23
2018-09-04T13:01:30.866Z,12.70
2018-09-04T13:03:59.719Z,13.90
2018-09-04T13:06:28.524Z,12.27
2018-09-04T13:08:57.432Z,14.73
2018-09-04T13:11:26.382Z,13.60
2018-09-04T13:13:55.244Z,12.57
2018-09-04T13:16:24.013Z,11.50
2018-09-04T13:18:52.896Z,11.10
2018-09-04T13:21:22.385Z,12.23
2018-09-04T13:23:51.267Z,11.50
2018-09-04T13:26:20.018Z,10.80
2018-09-04T13:28:48.900Z,9.97
2018-09-04T13:31:17.651Z,9.73
2018-09-04T13:33:46.472Z,10.10
2018-09-04T13:36:15.391Z,10.80
2018-09-04T13:38:44.146Z,9.37
2018-09-04T13:41:12.971Z,8.97
2018-09-04T13:43:41.724Z,9.07
2018-09-04T13:46:10.624Z,9.37
2018-09-04T13:48:39.524Z,9.53
2018-09-04T13:51:08.767Z,8.70
2018-09-04T13:53:37.531Z,8.77
2018-09-04T13:56:06.461Z,9.30
2018-09-04T13:58:35.314Z,8.90
2018-09-04T14:01:04.219Z,8.37
2018-09-04T14:03:32.981Z,8.30
2018-09-04T14:06:01.812Z,9.10
2018-09-04T14:08:30.592Z,7.80
2018-09-04T14:11:00.459Z,8.00
2018-09-04T14:13:30.703Z,7.90
2018-09-04T14:16:02.409Z,8.40
2018-09-04T14:18:31.205Z,7.67
2018-09-04T14:21:00.039Z,7.07
2018-09-04T14:23:28.837Z,7.17
2018-09-04T14:25:57.691Z,7.30
2018-09-04T14:28:41.682Z,6.30
2018-09-04T14:30:56.189Z,6.70
2018-09-04T14:33:25.047Z,7.83
2018-09-04T14:35:53.931Z,6.77
2018-09-04T14:38:22.832Z,6.53
2018-09-04T14:40:51.641Z,6.87
2018-09-04T14:43:20.452Z,6.43
2018-09-04T14:45:49.293Z,6.43
2018-09-04T14:48:18.126Z,6.13
2018-09-04T14:50:47.028Z,6.70
2018-09-04T14:53:15.828Z,6.60
2018-09-04T14:55:44.584Z,6.77
2018-09-04T14:58:13.375Z,6.20
2018-09-04T15:00:42.172Z,6.50
2018-09-04T15:03:11.054Z,6.20
2018-09-04T15:05:39.823Z,7.03
2018-09-04T15:08:08.628Z,6.30
2018-09-04T15:10:37.398Z,6.13
2018-09-04T15:13:06.256Z,6.27
2018-09-04T15:15:35.183Z,5.83
2018-09-04T15:18:04.014Z,5.73
2018-09-04T15:20:32.779Z,5.87
2018-09-04T15:23:01.683Z,5.90
2018-09-04T15:25:30.483Z,5.80
2018-09-04T15:27:59.384Z,5.83
2018-09-04T15:30:28.165Z,5.47
2018-09-04T15:32:56.981Z,6.47
2018-09-04T15:35:25.816Z,6.50
2018-09-04T15:37:54.616Z,5.73
2018-09-04T15:40:23.505Z,5.60
2018-09-04T15:42:52.375Z,6.00
2018-09-04T15:45:27.188Z,5.57
2018-09-04T15:47:56.008Z,5.77
2018-09-04T15:50:24.912Z,5.90
2018-09-04T15:52:53.697Z,5.87
2018-09-04T15:55:22.601Z,5.70
2018-09-04T15:57:51.365Z,5.57
2018-09-04T16:00:20.232Z,6.30
2018-09-04T16:02:49.032Z,5.53
2018-09-04T16:05:17.874Z,5.93
2018-09-04T16:07:46.713Z,5.13
2018-09-04T16:10:15.648Z,5.50
2018-09-04T16:12:44.319Z,6.47
2018-09-04T16:15:13.275Z,5.13
2018-09-04T16:17:42.082Z,5.37
2018-09-04T16:20:10.964Z,5.17
2018-09-04T16:22:39.793Z,4.80
2018-09-04T16:25:08.766Z,5.13
2018-09-04T16:27:37.656Z,4.93
2018-09-04T16:30:06.569Z,4.80
2018-09-04T16:32:35.341Z,5.00
2018-09-04T16:35:04.156Z,4.83
2018-09-04T16:37:33.009Z,4.87
2018-09-04T16:40:02.083Z,5.10
2018-09-04T16:42:30.924Z,4.37
2018-09-04T16:44:59.712Z,4.77
2018-09-04T16:47:29.007Z,4.40
2018-09-04T16:49:58.057Z,4.70
2018-09-04T16:52:27.019Z,5.00
2018-09-04T16:54:55.897Z,4.67
2018-09-04T16:57:24.753Z,4.90
2018-09-04T16:59:53.550Z,5.23
2018-09-04T17:02:22.486Z,4.93
2018-09-04T17:04:51.356Z,5.10
2018-09-04T17:07:20.192Z,4.90
2018-09-04T17:09:48.995Z,4.93
2018-09-04T17:12:17.916Z,5.27
2018-09-04T17:14:46.708Z,5.13
2018-09-04T17:17:15.574Z,4.63
2018-09-04T17:19:44.415Z,4.83
2018-09-04T17:22:13.267Z,4.97
2018-09-04T17:24:42.042Z,5.00
2018-09-04T17:27:10.811Z,5.07
2018-09-04T17:29:39.972Z,5.23
2018-09-04T17:32:08.838Z,4.33
2018-09-04T17:34:37.657Z,5.80
2018-09-04T17:37:06.458Z,4.50
2018-09-04T17:39:35.268Z,4.40
2018-09-04T17:42:04.146Z,4.77
2018-09-04T17:44:32.956Z,4.60
2018-09-04T17:47:01.886Z,5.70
2018-09-04T17:49:30.704Z,4.30
2018-09-04T17:51:59.463Z,5.10
2018-09-04T17:54:28.583Z,4.73
2018-09-04T17:56:57.372Z,4.93
2018-09-04T17:59:26.204Z,4.70
2018-09-04T18:01:54.987Z,5.03
2018-09-04T18:04:23.803Z,4.83
2018-09-04T18:06:52.728Z,5.27
2018-09-04T18:09:21.560Z,4.63
2018-09-04T18:11:50.805Z,5.00
2018-09-04T18:14:19.649Z,4.37
2018-09-04T18:16:48.468Z,4.87
2018-09-04T18:19:18.053Z,4.27
2018-09-04T18:21:47.207Z,4.87
2018-09-04T18:24:16.066Z,4.20
2018-09-04T18:26:44.930Z,4.87
2018-09-04T18:29:13.996Z,4.77
2018-09-04T18:31:42.844Z,4.50
2018-09-04T18:34:11.716Z,4.07
2018-09-04T18:36:40.567Z,4.57
2018-09-04T18:39:09.637Z,4.10
2018-09-04T18:41:38.488Z,4.00
2018-09-04T18:44:07.333Z,4.33
2018-09-04T18:46:36.353Z,4.07
2018-09-04T18:49:05.230Z,4.40
2018-09-04T18:51:34.021Z,4.30
2018-09-04T18:54:02.860Z,3.73
2018-09-04T18:56:31.810Z,4.10
2018-09-04T18:59:00.858Z,4.80
2018-09-04T19:01:29.963Z,3.90
2018-09-04T19:03:58.845Z,4.33
2018-09-04T19:06:27.645Z,3.90
2018-09-04T19:08:56.499Z,4.50
2018-09-04T19:11:25.302Z,4.50
2018-09-04T19:13:54.230Z,3.93
2018-09-04T19:16:23.269Z,3.90
2018-09-04T19:18:52.108Z,3.90
2018-09-04T19:21:21.030Z,3.77
2018-09-04T19:23:49.854Z,4.13
2018-09-04T19:26:18.688Z,3.60
2018-09-04T19:28:47.536Z,4.20
2018-09-04T19:31:16.323Z,4.27
2018-09-04T19:33:45.159Z,4.10
2018-09-04T19:36:14.251Z,5.13
2018-09-04T19:38:43.055Z,4.03
2018-09-04T19:41:12.499Z,4.53
2018-09-04T19:43:41.279Z,3.93
2018-09-04T19:46:10.195Z,4.60
2018-09-04T19:48:39.012Z,3.90
2018-09-04T19:51:07.803Z,4.47
2018-09-04T19:53:36.978Z,3.93
2018-09-04T19:56:05.959Z,3.93
2018-09-04T19:58:34.767Z,4.03
2018-09-04T20:01:03.626Z,3.70
2018-09-04T20:03:32.428Z,4.00
2018-09-04T20:06:01.277Z,4.20
2018-09-04T20:08:30.079Z,4.17
2018-09-04T20:10:58.915Z,4.10
2018-09-04T20:13:27.835Z,4.10
2018-09-04T20:15:56.656Z,4.60
2018-09-04T20:18:25.455Z,3.90
2018-09-04T20:20:54.259Z,3.53
2018-09-04T20:23:23.101Z,4.00
2018-09-04T20:25:51.866Z,4.17
2018-09-04T20:28:20.706Z,3.90
2018-09-04T20:30:49.495Z,3.83
2018-09-04T20:33:18.358Z,4.23
2018-09-04T20:35:47.186Z,4.27
2018-09-04T20:38:16.013Z,4.57
2018-09-04T20:40:45.207Z,3.97
2018-09-04T20:43:14.080Z,4.93
2018-09-04T20:45:48.065Z,4.63
2018-09-04T20:48:16.920Z,4.20
2018-09-04T20:50:45.739Z,4.23
2018-09-04T20:53:14.636Z,4.47
2018-09-04T20:55:43.455Z,4.63
2018-09-04T20:58:29.476Z,4.33
2018-09-04T21:01:15.215Z,4.03
2018-09-04T21:04:01.251Z,4.57
2018-09-04T21:06:42.848Z,4.73
2018-09-04T21:10:23.828Z,4.47
2018-09-04T21:12:52.677Z,4.50
2018-09-04T21:15:21.488Z,4.30
2018-09-04T21:17:50.913Z,4.33
2018-09-04T21:20:19.780Z,4.30
2018-09-04T21:22:48.700Z,4.50
2018-09-04T21:25:17.814Z,4.73
2018-09-04T21:27:46.588Z,4.97
2018-09-04T21:30:15.381Z,4.83
2018-09-04T21:32:44.572Z,5.27
2018-09-04T21:35:13.342Z,4.87
2018-09-04T21:37:42.312Z,4.87
2018-09-04T21:40:11.352Z,4.70
2018-09-04T21:42:40.132Z,5.57
2018-09-04T21:45:08.996Z,4.77
2018-09-04T21:47:38.014Z,5.00
2018-09-04T21:50:07.642Z,4.83
2018-09-04T21:52:36.431Z,5.40
2018-09-04T21:55:06.078Z,4.80
2018-09-04T21:57:34.859Z,5.00
2018-09-04T22:00:04.570Z,4.83
2018-09-04T22:02:33.519Z,5.13
2018-09-04T22:05:02.413Z,5.00
2018-09-04T22:07:31.228Z,5.27
2018-09-04T22:10:00.512Z,5.37
2018-09-04T22:12:29.860Z,5.47
2018-09-04T22:14:58.707Z,5.20
2018-09-04T22:17:27.910Z,6.43
2018-09-04T22:19:56.755Z,5.80
2018-09-04T22:22:25.556Z,5.43
2018-09-04T22:24:54.575Z,5.50
2018-09-04T22:27:23.396Z,5.90
2018-09-04T22:29:52.229Z,5.53
2018-09-04T22:32:21.564Z,5.27
2018-09-04T22:34:50.404Z,5.30
2018-09-04T22:37:19.191Z,5.63
2018-09-04T22:39:48.347Z,5.63
2018-09-04T22:42:17.154Z,6.93
2018-09-04T22:44:45.959Z,6.13
2018-09-04T22:47:15.117Z,6.23
2018-09-04T22:49:49.447Z,6.77
2018-09-04T22:52:23.043Z,7.43
2018-09-04T22:54:55.914Z,6.77
2018-09-04T22:57:25.232Z,6.80
2018-09-04T22:59:54.023Z,7.07
2018-09-04T23:02:22.874Z,8.03
2018-09-04T23:04:51.821Z,6.97
2018-09-04T23:07:20.785Z,7.20
2018-09-04T23:09:49.606Z,7.17
2018-09-04T23:12:18.791Z,7.30
2018-09-04T23:14:47.654Z,7.23
2018-09-04T23:17:16.420Z,8.17
2018-09-04T23:19:45.561Z,7.30
2018-09-04T23:22:14.383Z,6.63
2018-09-04T23:24:43.168Z,6.47
2018-09-04T23:27:12.354Z,7.10
2018-09-04T23:29:41.446Z,7.20
2018-09-04T23:32:10.209Z,7.13
2018-09-04T23:34:39.943Z,7.27
2018-09-04T23:37:08.735Z,7.10
2018-09-04T23:39:38.180Z,6.83
2018-09-04T23:42:07.294Z,8.03
2018-09-04T23:44:36.103Z,7.50
2018-09-04T23:47:05.283Z,7.20
2018-09-04T23:49:34.590Z,7.40
2018-09-04T23:52:03.495Z,6.97
2018-09-04T23:54:32.380Z,6.90
2018-09-04T23:57:01.312Z,7.20
2018-09-04T23:59:30.087Z,6.67
